VIV7409 MMHO-MMMY
Flight info
| Callsign | VIV7409 |
|---|---|
| Flight time | 1h 35m |
| Altitude | 35000 |
| Route | HMO5B HMO DCT IGTAN DCT SUTIL DCT ETLEP DCT SLW SLW1B |
| Aircraft | A320/M-SDE3FGHIRWY/LB1 |
Departure
| Time | 2026-04-22 03:37 |
|---|---|
| Airport | General Ignacio L. Pesqueira International Airport (MMHO) |
Arrival
| Time | 2026-04-22 05:13 |
|---|---|
| Airport | Monterrey International Airport (MMMY) |
| Time | Latitude | Longitude | Altitude | Speed | Heading |
|---|---|---|---|---|---|
| 2026-04-22 03:20 | 29.09072 | -111.05201 | 642 ft | 0 kts | 148° |
| 2026-04-22 03:27 | 29.09083 | -111.05210 | 641 ft | 3 kts | 141° |
| 2026-04-22 03:28 | 29.09098 | -111.05226 | 641 ft | 3 kts | 125° |
| 2026-04-22 03:28 | 29.09108 | -111.05245 | 641 ft | 3 kts | 109° |
| 2026-04-22 03:28 | 29.09112 | -111.05267 | 641 ft | 3 kts | 92° |
| 2026-04-22 03:28 | 29.09112 | -111.05290 | 641 ft | 3 kts | 80° |
| 2026-04-22 03:29 | 29.09107 | -111.05313 | 641 ft | 3 kts | 70° |
| 2026-04-22 03:29 | 29.09099 | -111.05334 | 641 ft | 3 kts | 62° |
| 2026-04-22 03:29 | 29.09090 | -111.05353 | 641 ft | 2 kts | 59° |
| 2026-04-22 03:29 | 29.09088 | -111.05356 | 641 ft | 0 kts | 59° |
| 2026-04-22 03:32 | 29.09089 | -111.05354 | 641 ft | 1 kts | 59° |
| 2026-04-22 03:32 | 29.09098 | -111.05337 | 641 ft | 4 kts | 59° |
| 2026-04-22 03:32 | 29.09101 | -111.05331 | 641 ft | 1 kts | 53° |
| 2026-04-22 03:32 | 29.09108 | -111.05325 | 641 ft | 4 kts | 55° |
| 2026-04-22 03:33 | 29.09132 | -111.05272 | 641 ft | 9 kts | 60° |
| 2026-04-22 03:33 | 29.09182 | -111.05180 | 641 ft | 17 kts | 57° |
| 2026-04-22 03:33 | 29.09245 | -111.05057 | 641 ft | 19 kts | 58° |
| 2026-04-22 03:33 | 29.09313 | -111.04931 | 641 ft | 11 kts | 58° |
| 2026-04-22 03:34 | 29.09372 | -111.04931 | 641 ft | 11 kts | 310° |
| 2026-04-22 03:34 | 29.09378 | -111.04938 | 641 ft | 0 kts | 314° |
| 2026-04-22 03:34 | 29.09388 | -111.04950 | 641 ft | 9 kts | 314° |
| 2026-04-22 03:34 | 29.09472 | -111.04989 | 641 ft | 15 kts | 44° |
| 2026-04-22 03:35 | 29.09531 | -111.04880 | 641 ft | 18 kts | 58° |
| 2026-04-22 03:35 | 29.09615 | -111.04722 | 641 ft | 25 kts | 58° |
| 2026-04-22 03:35 | 29.09711 | -111.04545 | 641 ft | 27 kts | 59° |
| 2026-04-22 03:35 | 29.09793 | -111.04379 | 641 ft | 15 kts | 61° |
| 2026-04-22 03:36 | 29.09832 | -111.04274 | 641 ft | 10 kts | 59° |
| 2026-04-22 03:36 | 29.09844 | -111.04288 | 641 ft | 0 kts | 250° |
| 2026-04-22 03:36 | 29.09840 | -111.04300 | 641 ft | 7 kts | 242° |
| 2026-04-22 03:37 | 29.09706 | -111.04556 | 641 ft | 78 kts | 238° |
| 2026-04-22 03:37 | 29.09279 | -111.05351 | 642 ft | 152 kts | 238° |
| 2026-04-22 03:37 | 29.08674 | -111.06501 | 1059 ft | 173 kts | 240° |
| 2026-04-22 03:37 | 29.08075 | -111.07709 | 1849 ft | 178 kts | 240° |
| 2026-04-22 03:38 | 29.07436 | -111.08997 | 2522 ft | 197 kts | 238° |
| 2026-04-22 03:38 | 29.06661 | -111.10365 | 3076 ft | 210 kts | 237° |
| 2026-04-22 03:38 | 29.05849 | -111.11808 | 3511 ft | 223 kts | 238° |
| 2026-04-22 03:38 | 29.05007 | -111.13397 | 3897 ft | 243 kts | 239° |
| 2026-04-22 03:39 | 29.04118 | -111.15110 | 4454 ft | 258 kts | 239° |
| 2026-04-22 03:39 | 29.03163 | -111.16908 | 5070 ft | 270 kts | 239° |
| 2026-04-22 03:39 | 29.02166 | -111.18754 | 5857 ft | 275 kts | 239° |
| 2026-04-22 03:39 | 29.01186 | -111.20609 | 6660 ft | 278 kts | 243° |
| 2026-04-22 03:40 | 29.00622 | -111.22702 | 7451 ft | 277 kts | 268° |
| 2026-04-22 03:40 | 29.00949 | -111.24840 | 8302 ft | 275 kts | 295° |
| 2026-04-22 03:40 | 29.02075 | -111.26622 | 9162 ft | 279 kts | 318° |
| 2026-04-22 03:40 | 29.03769 | -111.27702 | 9953 ft | 284 kts | 342° |
| 2026-04-22 03:41 | 29.05758 | -111.27862 | 10550 ft | 298 kts | 6° |
| 2026-04-22 03:41 | 29.07764 | -111.26978 | 10845 ft | 324 kts | 31° |
| 2026-04-22 03:41 | 29.09383 | -111.25068 | 11067 ft | 348 kts | 56° |
| 2026-04-22 03:41 | 29.10252 | -111.22410 | 11286 ft | 369 kts | 81° |
| 2026-04-22 03:42 | 29.10187 | -111.19428 | 11511 ft | 385 kts | 100° |
| 2026-04-22 03:42 | 29.09656 | -111.16372 | 11779 ft | 399 kts | 101° |
| 2026-04-22 03:42 | 29.09283 | -111.13175 | 12016 ft | 412 kts | 94° |
| 2026-04-22 03:42 | 29.09239 | -111.09850 | 12214 ft | 425 kts | 88° |
| 2026-04-22 03:43 | 29.09389 | -111.06475 | 12604 ft | 431 kts | 86° |
| 2026-04-22 03:43 | 29.09445 | -111.03038 | 13099 ft | 434 kts | 91° |
| 2026-04-22 03:43 | 29.09340 | -110.99578 | 13574 ft | 437 kts | 93° |
| 2026-04-22 03:43 | 29.09125 | -110.96101 | 14037 ft | 440 kts | 95° |
| 2026-04-22 03:44 | 29.08862 | -110.92593 | 14492 ft | 443 kts | 95° |
| 2026-04-22 03:44 | 29.08612 | -110.89079 | 14932 ft | 446 kts | 94° |
| 2026-04-22 03:44 | 29.08399 | -110.85520 | 15360 ft | 449 kts | 94° |
| 2026-04-22 03:44 | 29.08216 | -110.81938 | 15782 ft | 452 kts | 93° |
| 2026-04-22 03:45 | 29.08037 | -110.78335 | 16196 ft | 455 kts | 94° |
| 2026-04-22 03:45 | 29.07844 | -110.74762 | 16593 ft | 457 kts | 94° |
| 2026-04-22 03:45 | 29.07630 | -110.71121 | 16986 ft | 460 kts | 94° |
| 2026-04-22 03:45 | 29.07406 | -110.67452 | 17370 ft | 463 kts | 94° |
| 2026-04-22 03:46 | 29.07184 | -110.63771 | 17750 ft | 465 kts | 94° |
| 2026-04-22 03:46 | 29.06965 | -110.60068 | 18121 ft | 468 kts | 94° |
| 2026-04-22 03:46 | 29.06747 | -110.56348 | 18486 ft | 471 kts | 94° |
| 2026-04-22 03:46 | 29.06528 | -110.52597 | 18843 ft | 473 kts | 94° |
| 2026-04-22 03:47 | 29.06308 | -110.48833 | 19198 ft | 476 kts | 94° |
| 2026-04-22 03:47 | 29.06086 | -110.45060 | 19542 ft | 478 kts | 94° |
| 2026-04-22 03:47 | 29.05858 | -110.41250 | 19879 ft | 481 kts | 94° |
| 2026-04-22 03:47 | 29.05626 | -110.37463 | 20210 ft | 483 kts | 94° |
| 2026-04-22 03:48 | 29.05392 | -110.33620 | 20535 ft | 485 kts | 94° |
| 2026-04-22 03:48 | 29.05158 | -110.29769 | 20846 ft | 488 kts | 94° |
| 2026-04-22 03:48 | 29.04923 | -110.25894 | 21155 ft | 490 kts | 94° |
| 2026-04-22 03:48 | 29.04685 | -110.22002 | 21454 ft | 492 kts | 94° |
| 2026-04-22 03:49 | 29.04444 | -110.18091 | 21755 ft | 494 kts | 94° |
| 2026-04-22 03:49 | 29.04199 | -110.14161 | 22052 ft | 496 kts | 94° |
| 2026-04-22 03:49 | 29.03953 | -110.10219 | 22340 ft | 499 kts | 94° |
| 2026-04-22 03:49 | 29.03707 | -110.06242 | 22620 ft | 501 kts | 94° |
| 2026-04-22 03:50 | 29.03459 | -110.02306 | 22889 ft | 503 kts | 94° |
| 2026-04-22 03:50 | 29.03205 | -109.98318 | 23154 ft | 505 kts | 94° |
| 2026-04-22 03:50 | 29.02939 | -109.94315 | 23410 ft | 507 kts | 96° |
| 2026-04-22 03:50 | 29.02316 | -109.90338 | 23652 ft | 508 kts | 106° |
| 2026-04-22 03:51 | 29.01131 | -109.86541 | 23900 ft | 509 kts | 113° |
| 2026-04-22 03:51 | 28.99748 | -109.82815 | 24124 ft | 510 kts | 115° |
| 2026-04-22 03:51 | 28.98290 | -109.79095 | 24346 ft | 512 kts | 115° |
| 2026-04-22 03:51 | 28.96839 | -109.75373 | 24553 ft | 514 kts | 115° |
| 2026-04-22 03:52 | 28.95430 | -109.71617 | 24745 ft | 515 kts | 114° |
| 2026-04-22 03:52 | 28.94066 | -109.67833 | 25018 ft | 515 kts | 113° |
| 2026-04-22 03:52 | 28.92713 | -109.64041 | 25290 ft | 515 kts | 113° |
| 2026-04-22 03:52 | 28.91362 | -109.60315 | 25577 ft | 514 kts | 114° |
| 2026-04-22 03:53 | 28.89964 | -109.56550 | 25859 ft | 513 kts | 114° |
| 2026-04-22 03:53 | 28.88555 | -109.52809 | 26147 ft | 513 kts | 114° |
| 2026-04-22 03:53 | 28.87148 | -109.49066 | 26423 ft | 512 kts | 114° |
| 2026-04-22 03:53 | 28.85750 | -109.45311 | 26705 ft | 512 kts | 114° |
| 2026-04-22 03:54 | 28.84374 | -109.41580 | 26982 ft | 511 kts | 114° |
| 2026-04-22 03:54 | 28.82995 | -109.37832 | 27266 ft | 511 kts | 114° |
| 2026-04-22 03:54 | 28.81626 | -109.34145 | 27556 ft | 510 kts | 114° |
| 2026-04-22 03:54 | 28.80234 | -109.30424 | 27845 ft | 509 kts | 114° |
| 2026-04-22 03:55 | 28.78842 | -109.26705 | 28140 ft | 509 kts | 114° |
| 2026-04-22 03:55 | 28.77453 | -109.22993 | 28432 ft | 508 kts | 114° |
| 2026-04-22 03:55 | 28.76066 | -109.19284 | 28723 ft | 508 kts | 114° |
| 2026-04-22 03:55 | 28.74683 | -109.15578 | 29011 ft | 507 kts | 114° |
| 2026-04-22 03:56 | 28.73301 | -109.11879 | 29309 ft | 507 kts | 114° |
| 2026-04-22 03:56 | 28.71918 | -109.08184 | 29613 ft | 506 kts | 114° |
| 2026-04-22 03:56 | 28.70534 | -109.04512 | 29899 ft | 505 kts | 114° |
| 2026-04-22 03:56 | 28.69146 | -109.00827 | 30187 ft | 505 kts | 114° |
| 2026-04-22 03:57 | 28.67785 | -108.97204 | 30469 ft | 504 kts | 114° |
| 2026-04-22 03:57 | 28.66408 | -108.93534 | 30761 ft | 504 kts | 114° |
| 2026-04-22 03:57 | 28.65031 | -108.89873 | 31045 ft | 503 kts | 114° |
| 2026-04-22 03:57 | 28.63635 | -108.86166 | 31316 ft | 503 kts | 114° |
| 2026-04-22 03:58 | 28.62269 | -108.82554 | 31578 ft | 502 kts | 114° |
| 2026-04-22 03:58 | 28.60890 | -108.78914 | 31840 ft | 502 kts | 114° |
| 2026-04-22 03:58 | 28.59507 | -108.75260 | 32118 ft | 501 kts | 114° |
| 2026-04-22 03:58 | 28.58132 | -108.71626 | 32397 ft | 500 kts | 114° |
| 2026-04-22 03:59 | 28.56750 | -108.67974 | 32671 ft | 500 kts | 114° |
| 2026-04-22 03:59 | 28.55377 | -108.64351 | 32939 ft | 499 kts | 114° |
| 2026-04-22 03:59 | 28.53999 | -108.60719 | 33210 ft | 499 kts | 114° |
| 2026-04-22 03:59 | 28.52624 | -108.57096 | 33474 ft | 498 kts | 114° |
| 2026-04-22 04:00 | 28.51252 | -108.53491 | 33730 ft | 498 kts | 115° |
| 2026-04-22 04:00 | 28.49873 | -108.49880 | 33976 ft | 497 kts | 115° |
| 2026-04-22 04:00 | 28.48495 | -108.46264 | 34219 ft | 497 kts | 115° |
| 2026-04-22 04:00 | 28.47121 | -108.42658 | 34454 ft | 496 kts | 115° |
| 2026-04-22 04:01 | 28.45764 | -108.39099 | 34674 ft | 496 kts | 115° |
| 2026-04-22 04:01 | 28.44390 | -108.35504 | 34883 ft | 495 kts | 115° |
| 2026-04-22 04:01 | 28.43018 | -108.31920 | 35015 ft | 495 kts | 115° |
| 2026-04-22 04:01 | 28.41644 | -108.28330 | 35011 ft | 495 kts | 115° |
| 2026-04-22 04:02 | 28.38877 | -108.21119 | 35011 ft | 500 kts | 115° |
| 2026-04-22 04:02 | 28.36089 | -108.13867 | 35008 ft | 501 kts | 115° |
| 2026-04-22 04:03 | 28.33305 | -108.06618 | 35008 ft | 501 kts | 115° |
| 2026-04-22 04:03 | 28.30512 | -107.99380 | 35006 ft | 501 kts | 115° |
| 2026-04-22 04:04 | 28.27728 | -107.92178 | 35002 ft | 500 kts | 115° |
| 2026-04-22 04:04 | 28.24929 | -107.84948 | 34988 ft | 501 kts | 115° |
| 2026-04-22 04:05 | 28.22595 | -107.78931 | 34983 ft | 500 kts | 115° |
| 2026-04-22 04:05 | 28.19331 | -107.70528 | 34977 ft | 500 kts | 115° |
| 2026-04-22 04:06 | 28.16997 | -107.64528 | 34970 ft | 500 kts | 115° |
| 2026-04-22 04:06 | 28.14182 | -107.57314 | 34960 ft | 500 kts | 115° |
| 2026-04-22 04:07 | 28.11367 | -107.50096 | 34952 ft | 500 kts | 115° |
| 2026-04-22 04:07 | 28.08540 | -107.42894 | 34952 ft | 500 kts | 115° |
| 2026-04-22 04:08 | 28.05721 | -107.35694 | 34955 ft | 500 kts | 115° |
| 2026-04-22 04:08 | 28.02908 | -107.28520 | 34957 ft | 500 kts | 115° |
| 2026-04-22 04:09 | 28.00069 | -107.21319 | 34960 ft | 500 kts | 115° |
| 2026-04-22 04:09 | 27.97228 | -107.14137 | 34957 ft | 500 kts | 115° |
| 2026-04-22 04:10 | 27.94390 | -107.06937 | 34956 ft | 500 kts | 115° |
| 2026-04-22 04:10 | 27.91556 | -106.99753 | 34956 ft | 500 kts | 115° |
| 2026-04-22 04:11 | 27.88698 | -106.92565 | 34954 ft | 500 kts | 115° |
| 2026-04-22 04:11 | 27.85848 | -106.85444 | 34954 ft | 500 kts | 117° |
| 2026-04-22 04:12 | 27.82806 | -106.78369 | 34952 ft | 500 kts | 117° |
| 2026-04-22 04:12 | 27.79740 | -106.71325 | 34971 ft | 500 kts | 117° |
| 2026-04-22 04:13 | 27.76676 | -106.64253 | 34993 ft | 500 kts | 117° |
| 2026-04-22 04:13 | 27.73620 | -106.57197 | 35002 ft | 500 kts | 117° |
| 2026-04-22 04:14 | 27.70574 | -106.50192 | 35005 ft | 500 kts | 117° |
| 2026-04-22 04:14 | 27.67501 | -106.43150 | 35007 ft | 500 kts | 117° |
| 2026-04-22 04:15 | 27.64425 | -106.36100 | 35007 ft | 500 kts | 117° |
| 2026-04-22 04:15 | 27.61343 | -106.29051 | 35007 ft | 500 kts | 117° |
| 2026-04-22 04:16 | 27.56721 | -106.18508 | 35007 ft | 500 kts | 117° |
| 2026-04-22 04:17 | 27.53652 | -106.11516 | 35007 ft | 500 kts | 117° |
| 2026-04-22 04:17 | 27.50567 | -106.04499 | 35007 ft | 500 kts | 117° |
| 2026-04-22 04:18 | 27.47467 | -105.97472 | 35007 ft | 500 kts | 118° |
| 2026-04-22 04:18 | 27.44367 | -105.90448 | 35007 ft | 500 kts | 117° |
| 2026-04-22 04:19 | 27.41275 | -105.83443 | 34933 ft | 497 kts | 118° |
| 2026-04-22 04:19 | 27.39757 | -105.80018 | 34514 ft | 493 kts | 118° |
| 2026-04-22 04:19 | 27.38209 | -105.76529 | 33801 ft | 492 kts | 118° |
| 2026-04-22 04:19 | 27.36683 | -105.73086 | 33190 ft | 490 kts | 118° |
| 2026-04-22 04:20 | 27.35183 | -105.69704 | 32645 ft | 486 kts | 118° |
| 2026-04-22 04:20 | 27.33677 | -105.66314 | 32098 ft | 482 kts | 118° |
| 2026-04-22 04:20 | 27.32186 | -105.62960 | 31548 ft | 478 kts | 118° |
| 2026-04-22 04:20 | 27.30705 | -105.59632 | 30999 ft | 474 kts | 118° |
| 2026-04-22 04:21 | 27.29233 | -105.56327 | 30449 ft | 470 kts | 118° |
| 2026-04-22 04:21 | 27.27776 | -105.53053 | 29902 ft | 466 kts | 118° |
| 2026-04-22 04:21 | 27.26332 | -105.49813 | 29307 ft | 463 kts | 118° |
| 2026-04-22 04:21 | 27.24873 | -105.46548 | 28616 ft | 476 kts | 118° |
| 2026-04-22 04:22 | 27.23377 | -105.43207 | 28246 ft | 491 kts | 118° |
| 2026-04-22 04:22 | 27.21830 | -105.39746 | 28084 ft | 500 kts | 118° |
| 2026-04-22 04:22 | 27.20266 | -105.36244 | 28026 ft | 504 kts | 118° |
| 2026-04-22 04:23 | 27.17078 | -105.29125 | 28013 ft | 513 kts | 118° |
| 2026-04-22 04:23 | 27.13865 | -105.21963 | 28007 ft | 514 kts | 118° |
| 2026-04-22 04:24 | 27.10647 | -105.14796 | 28006 ft | 514 kts | 118° |
| 2026-04-22 04:24 | 27.07421 | -105.07633 | 28005 ft | 514 kts | 118° |
| 2026-04-22 04:25 | 27.04193 | -105.00483 | 28012 ft | 514 kts | 118° |
| 2026-04-22 04:25 | 27.01523 | -104.94569 | 28021 ft | 514 kts | 118° |
| 2026-04-22 04:26 | 26.98290 | -104.87422 | 28039 ft | 513 kts | 118° |
| 2026-04-22 04:26 | 26.95056 | -104.80278 | 28042 ft | 514 kts | 118° |
| 2026-04-22 04:27 | 26.91812 | -104.73134 | 28042 ft | 514 kts | 118° |
| 2026-04-22 04:27 | 26.88566 | -104.65996 | 28041 ft | 514 kts | 118° |
| 2026-04-22 04:28 | 26.85313 | -104.58860 | 28040 ft | 513 kts | 118° |
| 2026-04-22 04:28 | 26.82079 | -104.51787 | 28040 ft | 513 kts | 118° |
| 2026-04-22 04:29 | 26.78831 | -104.44662 | 28028 ft | 515 kts | 118° |
| 2026-04-22 04:29 | 26.75562 | -104.37513 | 28013 ft | 515 kts | 118° |
| 2026-04-22 04:30 | 26.72601 | -104.30195 | 28009 ft | 516 kts | 112° |
| 2026-04-22 04:30 | 26.70114 | -104.22705 | 28007 ft | 516 kts | 111° |
| 2026-04-22 04:31 | 26.67633 | -104.15164 | 28006 ft | 516 kts | 111° |
| 2026-04-22 04:31 | 26.65073 | -104.07654 | 28005 ft | 516 kts | 112° |
| 2026-04-22 04:32 | 26.62531 | -104.00143 | 28005 ft | 516 kts | 111° |
| 2026-04-22 04:32 | 26.60001 | -103.92610 | 28005 ft | 516 kts | 111° |
| 2026-04-22 04:33 | 26.57475 | -103.85149 | 28005 ft | 516 kts | 112° |
| 2026-04-22 04:33 | 26.54922 | -103.77642 | 28005 ft | 516 kts | 112° |
| 2026-04-22 04:34 | 26.52373 | -103.70134 | 28005 ft | 516 kts | 111° |
| 2026-04-22 04:34 | 26.49839 | -103.62674 | 28005 ft | 516 kts | 112° |
| 2026-04-22 04:35 | 26.47276 | -103.55184 | 28005 ft | 516 kts | 112° |
| 2026-04-22 04:35 | 26.44715 | -103.47693 | 28005 ft | 516 kts | 112° |
| 2026-04-22 04:36 | 26.42153 | -103.40222 | 28005 ft | 516 kts | 112° |
| 2026-04-22 04:36 | 26.39577 | -103.32729 | 28005 ft | 516 kts | 112° |
| 2026-04-22 04:37 | 26.37024 | -103.25289 | 28005 ft | 516 kts | 112° |
| 2026-04-22 04:37 | 26.34450 | -103.17825 | 28005 ft | 516 kts | 112° |
| 2026-04-22 04:38 | 26.31864 | -103.10355 | 28005 ft | 516 kts | 112° |
| 2026-04-22 04:38 | 26.29283 | -103.02886 | 28005 ft | 516 kts | 112° |
| 2026-04-22 04:39 | 26.26699 | -102.95421 | 28005 ft | 516 kts | 112° |
| 2026-04-22 04:39 | 26.24102 | -102.87950 | 28005 ft | 516 kts | 112° |
| 2026-04-22 04:40 | 26.21507 | -102.80495 | 28005 ft | 516 kts | 112° |
| 2026-04-22 04:40 | 26.18922 | -102.73076 | 28005 ft | 516 kts | 112° |
| 2026-04-22 04:41 | 26.16318 | -102.65627 | 28005 ft | 516 kts | 112° |
| 2026-04-22 04:41 | 26.13707 | -102.58174 | 28005 ft | 516 kts | 112° |
| 2026-04-22 04:42 | 26.11092 | -102.50710 | 28005 ft | 516 kts | 112° |
| 2026-04-22 04:42 | 26.08478 | -102.43272 | 28005 ft | 516 kts | 112° |
| 2026-04-22 04:43 | 26.05866 | -102.35857 | 28005 ft | 516 kts | 112° |
| 2026-04-22 04:43 | 26.03247 | -102.28428 | 28005 ft | 516 kts | 112° |
| 2026-04-22 04:44 | 26.00620 | -102.20990 | 28005 ft | 516 kts | 112° |
| 2026-04-22 04:44 | 25.97986 | -102.13561 | 28005 ft | 516 kts | 112° |
| 2026-04-22 04:45 | 25.95365 | -102.06178 | 28005 ft | 516 kts | 112° |
| 2026-04-22 04:45 | 25.92731 | -101.98752 | 28005 ft | 516 kts | 112° |
| 2026-04-22 04:46 | 25.90086 | -101.91333 | 28005 ft | 516 kts | 112° |
| 2026-04-22 04:46 | 25.87442 | -101.83924 | 28005 ft | 516 kts | 112° |
| 2026-04-22 04:47 | 25.84795 | -101.76512 | 28005 ft | 516 kts | 112° |
| 2026-04-22 04:47 | 25.82149 | -101.69140 | 28005 ft | 516 kts | 112° |
| 2026-04-22 04:48 | 25.79498 | -101.61731 | 28005 ft | 516 kts | 112° |
| 2026-04-22 04:48 | 25.76830 | -101.54324 | 28005 ft | 516 kts | 113° |
| 2026-04-22 04:49 | 25.74169 | -101.46921 | 28005 ft | 516 kts | 112° |
| 2026-04-22 04:49 | 25.71507 | -101.39528 | 28005 ft | 516 kts | 113° |
| 2026-04-22 04:50 | 25.68848 | -101.32187 | 27988 ft | 514 kts | 113° |
| 2026-04-22 04:50 | 25.67519 | -101.28522 | 27689 ft | 507 kts | 113° |
| 2026-04-22 04:50 | 25.66224 | -101.24948 | 27016 ft | 501 kts | 113° |
| 2026-04-22 04:50 | 25.64994 | -101.21550 | 26178 ft | 501 kts | 113° |
| 2026-04-22 04:51 | 25.63696 | -101.17964 | 25593 ft | 502 kts | 113° |
| 2026-04-22 04:51 | 25.62391 | -101.14364 | 25325 ft | 505 kts | 113° |
| 2026-04-22 04:51 | 25.61088 | -101.10778 | 25081 ft | 508 kts | 113° |
| 2026-04-22 04:51 | 25.59762 | -101.07142 | 24833 ft | 510 kts | 113° |
| 2026-04-22 04:52 | 25.58432 | -101.03493 | 24586 ft | 511 kts | 113° |
| 2026-04-22 04:52 | 25.57086 | -100.99800 | 24336 ft | 512 kts | 113° |
| 2026-04-22 04:52 | 25.55776 | -100.96184 | 24083 ft | 510 kts | 112° |
| 2026-04-22 04:52 | 25.54785 | -100.92426 | 23515 ft | 504 kts | 101° |
| 2026-04-22 04:53 | 25.54476 | -100.88576 | 22609 ft | 500 kts | 91° |
| 2026-04-22 04:53 | 25.54487 | -100.86043 | 22032 ft | 497 kts | 89° |
| 2026-04-22 04:53 | 25.54647 | -100.80949 | 20913 ft | 489 kts | 88° |
| 2026-04-22 04:53 | 25.54764 | -100.77246 | 20106 ft | 483 kts | 88° |
| 2026-04-22 04:54 | 25.54809 | -100.74753 | 19668 ft | 480 kts | 89° |
| 2026-04-22 04:54 | 25.54816 | -100.69869 | 19167 ft | 477 kts | 90° |
| 2026-04-22 04:54 | 25.54795 | -100.66206 | 19032 ft | 476 kts | 90° |
| 2026-04-22 04:54 | 25.54790 | -100.63724 | 19016 ft | 476 kts | 90° |
| 2026-04-22 04:55 | 25.54807 | -100.60106 | 19011 ft | 476 kts | 89° |
| 2026-04-22 04:55 | 25.54846 | -100.56449 | 18995 ft | 468 kts | 89° |
| 2026-04-22 04:55 | 25.54885 | -100.52915 | 18748 ft | 450 kts | 89° |
| 2026-04-22 04:55 | 25.54914 | -100.49509 | 18298 ft | 434 kts | 89° |
| 2026-04-22 04:56 | 25.54927 | -100.46220 | 17895 ft | 417 kts | 90° |
| 2026-04-22 04:56 | 25.54934 | -100.43067 | 17552 ft | 402 kts | 90° |
| 2026-04-22 04:56 | 25.54944 | -100.40026 | 17165 ft | 389 kts | 90° |
| 2026-04-22 04:56 | 25.54958 | -100.37090 | 16540 ft | 384 kts | 90° |
| 2026-04-22 04:57 | 25.54975 | -100.34152 | 15890 ft | 380 kts | 90° |
| 2026-04-22 04:57 | 25.54989 | -100.31239 | 15339 ft | 377 kts | 90° |
| 2026-04-22 04:57 | 25.55002 | -100.28351 | 15053 ft | 368 kts | 90° |
| 2026-04-22 04:57 | 25.55230 | -100.25603 | 14975 ft | 351 kts | 74° |
| 2026-04-22 04:58 | 25.56249 | -100.23228 | 14967 ft | 336 kts | 49° |
| 2026-04-22 04:58 | 25.57941 | -100.21553 | 14758 ft | 321 kts | 30° |
| 2026-04-22 04:58 | 25.59845 | -100.20317 | 14322 ft | 316 kts | 25° |
| 2026-04-22 04:58 | 25.61795 | -100.19154 | 13700 ft | 318 kts | 25° |
| 2026-04-22 04:59 | 25.63728 | -100.17954 | 13175 ft | 318 kts | 27° |
| 2026-04-22 04:59 | 25.65614 | -100.16689 | 12684 ft | 316 kts | 29° |
| 2026-04-22 04:59 | 25.67439 | -100.15399 | 12204 ft | 314 kts | 30° |
| 2026-04-22 04:59 | 25.69279 | -100.14081 | 11717 ft | 312 kts | 30° |
| 2026-04-22 05:00 | 25.71106 | -100.12786 | 11256 ft | 309 kts | 29° |
| 2026-04-22 05:00 | 25.72911 | -100.11522 | 11020 ft | 305 kts | 29° |
| 2026-04-22 05:00 | 25.74710 | -100.10272 | 11001 ft | 305 kts | 29° |
| 2026-04-22 05:00 | 25.76508 | -100.09022 | 11000 ft | 306 kts | 29° |
| 2026-04-22 05:01 | 25.78298 | -100.07772 | 11000 ft | 306 kts | 29° |
| 2026-04-22 05:01 | 25.80100 | -100.06511 | 11000 ft | 306 kts | 29° |
| 2026-04-22 05:01 | 25.81893 | -100.05256 | 10980 ft | 302 kts | 29° |
| 2026-04-22 05:01 | 25.83634 | -100.04034 | 10880 ft | 289 kts | 29° |
| 2026-04-22 05:02 | 25.85295 | -100.02869 | 10746 ft | 275 kts | 28° |
| 2026-04-22 05:02 | 25.86878 | -100.01764 | 10620 ft | 262 kts | 28° |
| 2026-04-22 05:02 | 25.88386 | -100.00708 | 10452 ft | 251 kts | 28° |
| 2026-04-22 05:02 | 25.89876 | -99.99736 | 10136 ft | 245 kts | 20° |
| 2026-04-22 05:03 | 25.91494 | -99.99307 | 9778 ft | 235 kts | 354° |
| 2026-04-22 05:03 | 25.93016 | -99.99745 | 9416 ft | 228 kts | 328° |
| 2026-04-22 05:03 | 25.94220 | -100.00880 | 9028 ft | 224 kts | 306° |
| 2026-04-22 05:03 | 25.95046 | -100.02344 | 8640 ft | 224 kts | 299° |
| 2026-04-22 05:04 | 25.95804 | -100.03861 | 8244 ft | 224 kts | 301° |
| 2026-04-22 05:04 | 25.96604 | -100.05319 | 7853 ft | 224 kts | 303° |
| 2026-04-22 05:04 | 25.97463 | -100.06766 | 7455 ft | 224 kts | 304° |
| 2026-04-22 05:04 | 25.98312 | -100.08221 | 7056 ft | 224 kts | 303° |
| 2026-04-22 05:05 | 25.99138 | -100.09685 | 6727 ft | 221 kts | 302° |
| 2026-04-22 05:05 | 25.99944 | -100.11119 | 6453 ft | 215 kts | 303° |
| 2026-04-22 05:05 | 26.00723 | -100.12484 | 6314 ft | 202 kts | 303° |
| 2026-04-22 05:05 | 26.01460 | -100.13769 | 6046 ft | 198 kts | 303° |
| 2026-04-22 05:06 | 26.02193 | -100.15054 | 5698 ft | 197 kts | 303° |
| 2026-04-22 05:06 | 26.02792 | -100.16414 | 5337 ft | 196 kts | 283° |
| 2026-04-22 05:06 | 26.02684 | -100.17903 | 4903 ft | 196 kts | 246° |
| 2026-04-22 05:06 | 26.01837 | -100.19061 | 4507 ft | 195 kts | 214° |
| 2026-04-22 05:07 | 26.00595 | -100.19623 | 4120 ft | 193 kts | 194° |
| 2026-04-22 05:07 | 25.99280 | -100.19952 | 3712 ft | 193 kts | 193° |
| 2026-04-22 05:07 | 25.97979 | -100.20321 | 3325 ft | 192 kts | 196° |
| 2026-04-22 05:07 | 25.96734 | -100.20738 | 3066 ft | 184 kts | 197° |
| 2026-04-22 05:08 | 25.95492 | -100.21156 | 2923 ft | 189 kts | 197° |
| 2026-04-22 05:08 | 25.94234 | -100.21562 | 2918 ft | 191 kts | 196° |
| 2026-04-22 05:08 | 25.92997 | -100.21959 | 2899 ft | 178 kts | 196° |
| 2026-04-22 05:08 | 25.91841 | -100.22335 | 2928 ft | 168 kts | 196° |
| 2026-04-22 05:09 | 25.90709 | -100.22703 | 2962 ft | 170 kts | 196° |
| 2026-04-22 05:09 | 25.89557 | -100.23074 | 2937 ft | 170 kts | 196° |
| 2026-04-22 05:09 | 25.88403 | -100.23106 | 2913 ft | 171 kts | 167° |
| 2026-04-22 05:09 | 25.87290 | -100.22651 | 2917 ft | 170 kts | 159° |
| 2026-04-22 05:10 | 25.86185 | -100.22200 | 2902 ft | 168 kts | 161° |
| 2026-04-22 05:10 | 25.85084 | -100.21793 | 2654 ft | 165 kts | 162° |
| 2026-04-22 05:10 | 25.84001 | -100.21347 | 2387 ft | 167 kts | 154° |
| 2026-04-22 05:10 | 25.83142 | -100.20477 | 2380 ft | 168 kts | 123° |
| 2026-04-22 05:11 | 25.82587 | -100.19368 | 2394 ft | 162 kts | 119° |
| 2026-04-22 05:11 | 25.82019 | -100.18282 | 2396 ft | 162 kts | 121° |
| 2026-04-22 05:11 | 25.81436 | -100.17224 | 2392 ft | 163 kts | 121° |
| 2026-04-22 05:11 | 25.80854 | -100.16152 | 2243 ft | 162 kts | 121° |
| 2026-04-22 05:12 | 25.80304 | -100.15106 | 1959 ft | 152 kts | 121° |
| 2026-04-22 05:12 | 25.79759 | -100.14152 | 1729 ft | 143 kts | 123° |
| 2026-04-22 05:12 | 25.79234 | -100.13199 | 1518 ft | 149 kts | 120° |
| 2026-04-22 05:12 | 25.78689 | -100.12204 | 1401 ft | 153 kts | 121° |
| 2026-04-22 05:13 | 25.78138 | -100.11204 | 1295 ft | 149 kts | 122° |
| 2026-04-22 05:13 | 25.77696 | -100.10404 | 1292 ft | 80 kts | 125° |
| 2026-04-22 05:13 | 25.77523 | -100.10096 | 1292 ft | 36 kts | 121° |
| 2026-04-22 05:13 | 25.77407 | -100.09881 | 1292 ft | 30 kts | 121° |
| 2026-04-22 05:14 | 25.77322 | -100.09726 | 1292 ft | 17 kts | 122° |
| 2026-04-22 05:14 | 25.77272 | -100.09686 | 1292 ft | 10 kts | 195° |
| 2026-04-22 05:14 | 25.77208 | -100.09728 | 1292 ft | 12 kts | 210° |
| 2026-04-22 05:14 | 25.77144 | -100.09791 | 1292 ft | 13 kts | 276° |
| 2026-04-22 05:15 | 25.77184 | -100.09886 | 1292 ft | 15 kts | 301° |
| 2026-04-22 05:15 | 25.77245 | -100.09994 | 1292 ft | 18 kts | 302° |
| 2026-04-22 05:15 | 25.77330 | -100.10149 | 1292 ft | 31 kts | 301° |
| 2026-04-22 05:15 | 25.77463 | -100.10390 | 1292 ft | 39 kts | 302° |
| 2026-04-22 05:16 | 25.77597 | -100.10631 | 1292 ft | 29 kts | 303° |
| 2026-04-22 05:16 | 25.77700 | -100.10818 | 1292 ft | 26 kts | 300° |
| 2026-04-22 05:16 | 25.77788 | -100.10981 | 1292 ft | 26 kts | 301° |
| 2026-04-22 05:16 | 25.77842 | -100.11079 | 1292 ft | 14 kts | 302° |
| 2026-04-22 05:17 | 25.77886 | -100.11157 | 1292 ft | 11 kts | 302° |
| 2026-04-22 05:17 | 25.77892 | -100.11168 | 1292 ft | 0 kts | 302° |
| 2026-04-22 05:20 | 25.77896 | -100.11174 | 1292 ft | 5 kts | 303° |
| 2026-04-22 05:20 | 25.77921 | -100.11220 | 1292 ft | 0 kts | 302° |
| 2026-04-22 05:21 | 25.77931 | -100.11238 | 1292 ft | 8 kts | 300° |
| 2026-04-22 05:21 | 25.77977 | -100.11322 | 1292 ft | 17 kts | 294° |
| 2026-04-22 05:21 | 25.78041 | -100.11437 | 1292 ft | 12 kts | 303° |
| 2026-04-22 05:22 | 25.78031 | -100.11498 | 1292 ft | 9 kts | 212° |
| 2026-04-22 05:22 | 25.77976 | -100.11535 | 1292 ft | 8 kts | 210° |
| 2026-04-22 05:22 | 25.77944 | -100.11566 | 1292 ft | 6 kts | 260° |
| 2026-04-22 05:22 | 25.77958 | -100.11603 | 1292 ft | 6 kts | 301° |
| 2026-04-22 05:23 | 25.77966 | -100.11617 | 1292 ft | 0 kts | 302° |